Time;durP1;ratioP1;P1;durP2;ratioP2;P2;SDS_P1;SDS_P2;PMS_P1;PMS_P2;Temp;Humidity;BMP_temperature;BMP_pressure;BME280_temperature;BME280_humidity;BME280_pressure;Samples;Min_cycle;Max_cycle;Signal;HPM_P1;HPM_P2
2023/05/14 00:00:46;;;;;;;3.80;2.40;;;;;;;;;;6242700;22;20014;-77
2023/05/14 00:03:12;;;;;;;5.53;2.40;;;;;;;;;;6270873;22;20070;-77
2023/05/14 00:05:37;;;;;;;4.53;2.60;;;;;;;;;;6270560;22;20043;-77
2023/05/14 00:08:02;;;;;;;4.32;2.55;;;;;;;;;;6242895;22;20030;-77
2023/05/14 00:10:28;;;;;;;4.57;2.60;;;;;;;;;;6270097;22;20010;-77
2023/05/14 00:12:53;;;;;;;5.32;3.08;;;;;;;;;;6243035;22;20090;-77
2023/05/14 00:15:19;;;;;;;4.90;2.90;;;;;;;;;;6270350;22;20075;-77
2023/05/14 00:17:45;;;;;;;5.32;3.20;;;;;;;;;;6270533;22;20448;-77
2023/05/14 00:20:11;;;;;;;4.15;2.80;;;;;;;;;;6269880;22;20470;-77
2023/05/14 00:22:37;;;;;;;8.45;3.42;;;;;;;;;;6270484;22;20014;-77
2023/05/14 00:25:02;;;;;;;7.35;3.20;;;;;;;;;;6270511;22;20502;-77
2023/05/14 00:27:28;;;;;;;5.60;3.08;;;;;;;;;;6270686;22;20007;-77
2023/05/14 00:29:53;;;;;;;9.05;3.15;;;;;;;;;;6242746;22;20004;-77
2023/05/14 00:32:19;;;;;;;5.55;3.08;;;;;;;;;;6270401;22;20121;-77
2023/05/14 00:34:44;;;;;;;4.90;3.00;;;;;;;;;;6270299;22;20012;-78
2023/05/14 00:37:09;;;;;;;6.28;2.83;;;;;;;;;;6270123;22;20004;-78
2023/05/14 00:39:35;;;;;;;6.45;3.00;;;;;;;;;;6270148;22;20012;-78
2023/05/14 00:42:00;;;;;;;4.80;2.72;;;;;;;;;;6270760;22;20000;-77
2023/05/14 00:44:26;;;;;;;6.72;3.05;;;;;;;;;;6270151;22;20058;-77
2023/05/14 00:46:51;;;;;;;6.18;3.22;;;;;;;;;;6270619;22;20010;-77
2023/05/14 00:49:17;;;;;;;4.80;3.08;;;;;;;;;;6270164;22;20007;-78
2023/05/14 00:51:45;;;;;;;6.85;3.35;;;;;;;;;;6269746;22;20000;-77
2023/05/14 00:54:13;;;;;;;6.72;3.10;;;;;;;;;;6270346;22;20321;-77
2023/05/14 00:56:39;;;;;;;7.68;3.10;;;;;;;;;;6243054;22;20008;-77
2023/05/14 00:59:04;;;;;;;5.22;2.85;;;;;;;;;;6270492;22;20014;-77
2023/05/14 01:01:30;;;;;;;6.20;3.30;;;;;;;;;;6270132;22;20030;-77
2023/05/14 01:03:56;;;;;;;5.25;3.45;;;;;;;;;;6243039;22;20008;-77
2023/05/14 01:06:41;;;;;;;5.85;3.25;;;;;;;;;;6269662;22;20352;-77
2023/05/14 01:09:25;;;;;;;6.68;3.13;;;;;;;;;;6270117;22;20004;-77
2023/05/14 01:11:50;;;;;;;8.40;3.70;;;;;;;;;;6269702;22;20004;-77
2023/05/14 01:14:22;;;;;;;6.28;3.60;;;;;;;;;;6270320;22;20574;-77
2023/05/14 01:16:55;;;;;;;7.47;3.45;;;;;;;;;;6270099;22;20014;-76
2023/05/14 01:19:28;;;;;;;7.32;3.65;;;;;;;;;;6270276;22;20010;-77
2023/05/14 01:21:54;;;;;;;9.35;3.30;;;;;;;;;;6242237;22;20004;-77
2023/05/14 01:24:19;;;;;;;7.07;3.42;;;;;;;;;;6270213;22;20355;-77
2023/05/14 01:26:44;;;;;;;6.78;3.65;;;;;;;;;;6270297;22;19999;-77
2023/05/14 01:29:18;;;;;;;8.00;3.72;;;;;;;;;;6270235;22;20404;-77
2023/05/14 01:31:45;;;;;;;5.57;3.50;;;;;;;;;;6243017;22;20065;-77
2023/05/14 01:34:13;;;;;;;10.23;3.80;;;;;;;;;;6272133;22;20010;-77
2023/05/14 01:36:39;;;;;;;8.13;3.78;;;;;;;;;;6271059;22;20000;-76
2023/05/14 01:39:08;;;;;;;5.63;3.78;;;;;;;;;;6272321;22;19999;-77
2023/05/14 01:41:35;;;;;;;6.22;3.85;;;;;;;;;;6271896;22;20000;-77
2023/05/14 01:44:01;;;;;;;5.68;4.00;;;;;;;;;;6271988;22;20007;-77
2023/05/14 01:46:32;;;;;;;6.65;4.00;;;;;;;;;;6271953;22;20015;-76
2023/05/14 01:48:58;;;;;;;6.70;3.90;;;;;;;;;;6271578;22;20000;-76
2023/05/14 01:51:24;;;;;;;7.20;3.90;;;;;;;;;;6271038;22;20014;-77
2023/05/14 01:53:50;;;;;;;7.40;4.13;;;;;;;;;;6271846;22;20031;-78
2023/05/14 01:56:17;;;;;;;6.45;4.03;;;;;;;;;;6244538;22;20000;-77
2023/05/14 01:58:42;;;;;;;7.03;3.90;;;;;;;;;;6271988;22;20030;-77
2023/05/14 02:01:07;;;;;;;6.13;3.70;;;;;;;;;;6271507;22;20377;-77
2023/05/14 02:03:33;;;;;;;5.93;3.65;;;;;;;;;;6271915;22;20413;-76
2023/05/14 02:05:58;;;;;;;4.60;3.25;;;;;;;;;;6271012;22;20000;-78
2023/05/14 02:08:24;;;;;;;8.07;3.92;;;;;;;;;;6271968;22;20026;-77
2023/05/14 02:10:49;;;;;;;5.57;3.90;;;;;;;;;;6271302;22;20053;-77
2023/05/14 02:13:15;;;;;;;6.57;3.97;;;;;;;;;;6271551;22;20107;-77
2023/05/14 02:15:41;;;;;;;6.32;3.90;;;;;;;;;;6271683;22;20000;-76
2023/05/14 02:18:06;;;;;;;5.97;3.85;;;;;;;;;;6271760;22;19999;-77
2023/05/14 02:20:32;;;;;;;6.10;3.95;;;;;;;;;;6271509;22;20006;-77
2023/05/14 02:22:57;;;;;;;6.40;3.92;;;;;;;;;;6271168;22;19995;-77
2023/05/14 02:25:23;;;;;;;5.40;3.80;;;;;;;;;;6271849;22;20634;-76
2023/05/14 02:27:48;;;;;;;5.78;3.80;;;;;;;;;;6271653;22;20004;-76
2023/05/14 02:30:13;;;;;;;5.40;3.83;;;;;;;;;;6271574;22;20007;-77
2023/05/14 02:32:39;;;;;;;6.32;4.10;;;;;;;;;;6270993;22;20386;-77
2023/05/14 02:35:05;;;;;;;6.68;3.88;;;;;;;;;;6271570;22;20011;-77
2023/05/14 02:37:30;;;;;;;6.85;4.05;;;;;;;;;;6270625;22;20004;-77
2023/05/14 02:39:56;;;;;;;7.80;3.80;;;;;;;;;;6271379;22;20011;-77
2023/05/14 02:42:21;;;;;;;6.70;4.00;;;;;;;;;;6270855;22;20058;-77
2023/05/14 02:44:47;;;;;;;7.88;3.95;;;;;;;;;;6271530;22;20416;-77
2023/05/14 02:47:12;;;;;;;6.63;4.03;;;;;;;;;;6270966;22;20004;-77
2023/05/14 02:49:39;;;;;;;7.13;4.00;;;;;;;;;;6271100;22;20015;-77
2023/05/14 02:52:04;;;;;;;7.18;4.60;;;;;;;;;;6270444;22;20048;-77
2023/05/14 02:54:29;;;;;;;6.50;3.80;;;;;;;;;;6271519;22;20003;-77
2023/05/14 02:56:55;;;;;;;5.57;3.88;;;;;;;;;;6271159;22;20003;-77
2023/05/14 02:59:22;;;;;;;5.63;4.10;;;;;;;;;;6271237;22;20004;-77
2023/05/14 03:01:48;;;;;;;6.32;3.90;;;;;;;;;;6270847;22;20058;-77
2023/05/14 03:04:13;;;;;;;7.13;3.70;;;;;;;;;;6271292;22;20438;-78
2023/05/14 03:06:39;;;;;;;7.22;3.70;;;;;;;;;;6270557;22;20516;-77
2023/05/14 03:09:04;;;;;;;6.30;4.25;;;;;;;;;;6271072;22;20014;-78
2023/05/14 03:11:30;;;;;;;5.93;3.67;;;;;;;;;;6270796;22;20004;-77
2023/05/14 03:13:55;;;;;;;6.18;3.90;;;;;;;;;;6243803;22;20019;-77
2023/05/14 03:16:21;;;;;;;4.85;3.55;;;;;;;;;;6270722;22;20075;-77
2023/05/14 03:18:46;;;;;;;8.05;3.70;;;;;;;;;;6270999;22;20062;-77
2023/05/14 03:21:12;;;;;;;5.28;3.72;;;;;;;;;;6270285;22;20407;-77
2023/05/14 03:23:39;;;;;;;4.82;3.40;;;;;;;;;;6270952;22;20003;-77
2023/05/14 03:26:05;;;;;;;6.88;3.80;;;;;;;;;;6270916;22;20033;-77
2023/05/14 03:28:30;;;;;;;6.05;3.63;;;;;;;;;;6271052;22;20000;-78
2023/05/14 03:30:56;;;;;;;6.32;3.50;;;;;;;;;;6270802;22;20004;-77
2023/05/14 03:33:21;;;;;;;4.75;3.25;;;;;;;;;;6270361;22;20631;-77
2023/05/14 03:35:47;;;;;;;4.90;3.35;;;;;;;;;;6271030;22;20027;-77
2023/05/14 03:38:12;;;;;;;6.95;3.22;;;;;;;;;;6270152;22;20448;-77
2023/05/14 03:40:38;;;;;;;4.82;2.80;;;;;;;;;;6270612;22;20088;-77
2023/05/14 03:43:03;;;;;;;3.97;2.90;;;;;;;;;;6270609;22;19999;-77
2023/05/14 03:45:29;;;;;;;5.35;2.80;;;;;;;;;;6270840;22;20011;-77
2023/05/14 03:47:54;;;;;;;4.78;2.90;;;;;;;;;;6270721;22;20053;-78
2023/05/14 03:50:20;;;;;;;4.10;2.63;;;;;;;;;;6270922;22;20010;-77
2023/05/14 03:52:45;;;;;;;4.80;2.70;;;;;;;;;;6269989;22;20000;-76
2023/05/14 03:55:11;;;;;;;4.22;2.70;;;;;;;;;;6270694;22;20003;-77
2023/05/14 03:57:36;;;;;;;5.10;2.90;;;;;;;;;;6243035;22;20106;-76
2023/05/14 04:00:03;;;;;;;3.50;2.63;;;;;;;;;;6270968;22;20065;-77
2023/05/14 04:02:29;;;;;;;4.55;2.70;;;;;;;;;;6270466;22;20074;-77
2023/05/14 04:04:54;;;;;;;4.15;2.55;;;;;;;;;;6271004;22;20027;-77
2023/05/14 04:07:19;;;;;;;3.75;2.47;;;;;;;;;;6270016;22;20332;-77
2023/05/14 04:09:45;;;;;;;4.57;2.70;;;;;;;;;;6270597;22;20008;-77
2023/05/14 04:12:10;;;;;;;4.07;2.72;;;;;;;;;;6270273;22;20004;-77
2023/05/14 04:14:36;;;;;;;4.80;2.65;;;;;;;;;;6270412;22;20012;-77
2023/05/14 04:17:01;;;;;;;3.67;2.70;;;;;;;;;;6270355;22;20012;-77
2023/05/14 04:19:26;;;;;;;4.22;3.00;;;;;;;;;;6270966;22;20045;-77
2023/05/14 04:21:55;;;;;;;4.57;2.88;;;;;;;;;;6270211;22;20046;-77
2023/05/14 04:24:20;;;;;;;4.18;2.63;;;;;;;;;;6270438;22;20386;-77
2023/05/14 04:26:45;;;;;;;5.97;2.70;;;;;;;;;;6270540;22;20004;-77
2023/05/14 04:29:11;;;;;;;4.78;2.90;;;;;;;;;;6242963;22;20004;-77
2023/05/14 04:31:36;;;;;;;3.58;2.70;;;;;;;;;;6270502;22;20008;-77
2023/05/14 04:34:02;;;;;;;3.67;2.63;;;;;;;;;;6270098;22;20023;-77
2023/05/14 04:36:27;;;;;;;4.43;2.63;;;;;;;;;;6270213;22;20556;-77
2023/05/14 04:38:52;;;;;;;4.50;2.70;;;;;;;;;;6270215;22;20081;-76
2023/05/14 04:41:18;;;;;;;2.90;2.35;;;;;;;;;;6270460;22;20095;-77
2023/05/14 04:43:43;;;;;;;4.65;2.42;;;;;;;;;;6270175;22;19999;-77
2023/05/14 04:46:09;;;;;;;3.38;2.40;;;;;;;;;;6270426;22;20049;-77
2023/05/14 04:48:34;;;;;;;3.60;2.55;;;;;;;;;;6270150;22;20004;-77
2023/05/14 04:50:59;;;;;;;4.88;2.58;;;;;;;;;;6269897;22;20007;-77
2023/05/14 04:53:25;;;;;;;4.30;2.58;;;;;;;;;;6269938;22;20039;-77
2023/05/14 04:55:50;;;;;;;3.60;2.60;;;;;;;;;;6270510;22;20006;-77
2023/05/14 04:58:16;;;;;;;3.88;2.63;;;;;;;;;;6270103;22;20033;-76
2023/05/14 05:00:41;;;;;;;4.78;2.63;;;;;;;;;;6243552;22;20083;-77
2023/05/14 05:03:07;;;;;;;3.55;2.67;;;;;;;;;;6270165;22;20431;-76
2023/05/14 05:05:33;;;;;;;3.60;2.50;;;;;;;;;;6271139;22;20000;-77
2023/05/14 05:07:59;;;;;;;4.18;2.60;;;;;;;;;;6244256;22;20011;-76
2023/05/14 05:10:27;;;;;;;3.47;2.50;;;;;;;;;;6272304;22;20062;-77
2023/05/14 05:12:53;;;;;;;3.22;2.83;;;;;;;;;;6271775;22;20061;-77
2023/05/14 05:15:18;;;;;;;3.40;2.40;;;;;;;;;;6272198;22;20011;-77
2023/05/14 05:17:44;;;;;;;5.30;2.47;;;;;;;;;;6272184;22;20475;-77
2023/05/14 05:20:09;;;;;;;3.25;2.35;;;;;;;;;;6272457;22;20376;-77
2023/05/14 05:22:35;;;;;;;3.53;2.53;;;;;;;;;;6271763;22;20075;-77
2023/05/14 05:25:05;;;;;;;2.90;2.15;;;;;;;;;;6272127;22;20004;-77
2023/05/14 05:27:30;;;;;;;2.90;2.10;;;;;;;;;;6272115;22;20018;-78
2023/05/14 05:29:56;;;;;;;5.70;2.33;;;;;;;;;;6271876;22;20069;-77
2023/05/14 05:32:22;;;;;;;3.63;2.40;;;;;;;;;;6271785;22;20004;-77
2023/05/14 05:34:47;;;;;;;3.20;2.55;;;;;;;;;;6271657;22;20119;-77
2023/05/14 05:37:13;;;;;;;3.30;2.25;;;;;;;;;;6271860;22;20066;-77
2023/05/14 05:39:39;;;;;;;3.40;2.38;;;;;;;;;;6271424;22;20467;-77
2023/05/14 05:42:05;;;;;;;4.00;2.50;;;;;;;;;;6272218;22;20416;-77
2023/05/14 05:44:30;;;;;;;3.42;2.63;;;;;;;;;;6271564;22;20416;-77
2023/05/14 05:46:58;;;;;;;2.97;2.40;;;;;;;;;;6272001;22;20034;-77
2023/05/14 05:49:24;;;;;;;4.47;2.45;;;;;;;;;;6271534;22;20034;-76
2023/05/14 05:51:49;;;;;;;3.25;2.50;;;;;;;;;;6271525;22;20072;-77
2023/05/14 05:54:14;;;;;;;3.20;2.15;;;;;;;;;;6271633;22;20432;-77
2023/05/14 05:56:40;;;;;;;4.53;2.90;;;;;;;;;;6271862;22;20082;-77
2023/05/14 05:59:05;;;;;;;3.20;2.45;;;;;;;;;;6271651;22;20008;-77
2023/05/14 06:01:31;;;;;;;3.22;2.50;;;;;;;;;;6272003;22;20003;-77
2023/05/14 06:03:56;;;;;;;3.35;2.72;;;;;;;;;;6271150;22;20057;-77
2023/05/14 06:06:22;;;;;;;3.63;2.80;;;;;;;;;;6244229;22;20004;-77
2023/05/14 06:08:47;;;;;;;3.80;2.65;;;;;;;;;;6271195;22;20026;-77
2023/05/14 06:11:14;;;;;;;4.07;2.85;;;;;;;;;;6271618;22;20416;-77
2023/05/14 06:13:39;;;;;;;4.53;2.97;;;;;;;;;;6271547;22;20079;-77
2023/05/14 06:16:05;;;;;;;4.22;3.13;;;;;;;;;;6271996;22;20058;-77
2023/05/14 06:18:30;;;;;;;5.22;3.30;;;;;;;;;;6271262;22;20010;-77
2023/05/14 06:20:58;;;;;;;4.45;3.25;;;;;;;;;;6271262;22;20483;-77
2023/05/14 06:23:25;;;;;;;4.20;2.90;;;;;;;;;;6271382;22;20004;-77
2023/05/14 06:25:50;;;;;;;4.63;3.35;;;;;;;;;;6271613;22;20027;-77
2023/05/14 06:28:16;;;;;;;4.97;3.38;;;;;;;;;;6271342;22;20004;-77
2023/05/14 06:30:41;;;;;;;4.05;3.15;;;;;;;;;;6271406;22;19999;-77
2023/05/14 06:33:06;;;;;;;6.15;3.40;;;;;;;;;;6271402;22;20000;-77
2023/05/14 06:35:33;;;;;;;5.47;3.40;;;;;;;;;;6244322;22;20451;-77
2023/05/14 06:37:59;;;;;;;4.90;3.75;;;;;;;;;;6270985;22;20011;-77
2023/05/14 06:40:24;;;;;;;6.10;3.65;;;;;;;;;;6271142;22;20158;-77
2023/05/14 06:42:49;;;;;;;6.28;4.10;;;;;;;;;;6271390;22;20054;-78
2023/05/14 06:45:15;;;;;;;5.47;3.70;;;;;;;;;;6271041;22;20368;-77
2023/05/14 06:47:40;;;;;;;5.30;4.03;;;;;;;;;;6244425;22;20047;-77
2023/05/14 06:50:06;;;;;;;8.70;4.13;;;;;;;;;;6271407;22;20540;-77
2023/05/14 06:52:32;;;;;;;6.15;3.92;;;;;;;;;;6271549;22;20024;-77
2023/05/14 06:54:57;;;;;;;5.93;3.85;;;;;;;;;;6270875;22;20003;-77
2023/05/14 06:57:23;;;;;;;6.75;4.32;;;;;;;;;;6244938;22;20004;-77
2023/05/14 06:59:48;;;;;;;6.60;4.40;;;;;;;;;;6271159;22;19999;-77
2023/05/14 07:02:14;;;;;;;5.10;4.10;;;;;;;;;;6271639;22;20539;-77
2023/05/14 07:04:40;;;;;;;8.93;4.35;;;;;;;;;;6271341;22;20006;-76
2023/05/14 07:07:05;;;;;;;6.97;4.40;;;;;;;;;;6270773;22;20462;-76
2023/05/14 07:09:30;;;;;;;6.57;4.45;;;;;;;;;;6270626;22;20011;-76
2023/05/14 07:11:56;;;;;;;8.63;4.53;;;;;;;;;;6270972;22;20004;-78
2023/05/14 07:14:21;;;;;;;6.28;4.18;;;;;;;;;;6270744;22;20460;-77
2023/05/14 07:16:47;;;;;;;5.75;4.30;;;;;;;;;;6271341;22;20034;-77
2023/05/14 07:19:12;;;;;;;7.25;4.35;;;;;;;;;;6271074;22;20364;-77
2023/05/14 07:21:37;;;;;;;6.75;4.10;;;;;;;;;;6270523;22;20436;-77
2023/05/14 07:24:03;;;;;;;6.75;4.38;;;;;;;;;;6243401;22;20575;-77
2023/05/14 07:26:30;;;;;;;6.38;3.85;;;;;;;;;;6271293;22;20065;-78
2023/05/14 07:28:55;;;;;;;7.13;4.35;;;;;;;;;;6270132;22;20011;-77
2023/05/14 07:31:21;;;;;;;6.15;4.38;;;;;;;;;;6270815;22;20000;-77
2023/05/14 07:33:46;;;;;;;5.43;4.25;;;;;;;;;;6270611;22;20079;-77
2023/05/14 07:36:12;;;;;;;6.45;4.20;;;;;;;;;;6270598;22;20026;-77
2023/05/14 07:38:37;;;;;;;7.50;3.85;;;;;;;;;;6271004;22;20452;-77
2023/05/14 07:41:03;;;;;;;6.20;4.13;;;;;;;;;;6270466;22;20012;-77
2023/05/14 07:43:31;;;;;;;7.32;3.90;;;;;;;;;;6271082;22;20000;-78
2023/05/14 07:45:56;;;;;;;7.05;4.10;;;;;;;;;;6270382;22;20011;-78
2023/05/14 07:48:21;;;;;;;7.43;4.00;;;;;;;;;;6270748;22;20010;-77
2023/05/14 07:50:50;;;;;;;5.63;3.53;;;;;;;;;;6270570;22;20014;-77
2023/05/14 07:53:16;;;;;;;6.15;3.95;;;;;;;;;;6270745;22;20270;-77
2023/05/14 07:55:43;;;;;;;6.15;3.80;;;;;;;;;;6270348;22;20027;-77
2023/05/14 07:58:08;;;;;;;6.40;3.80;;;;;;;;;;6270938;22;20003;-77
2023/05/14 08:00:34;;;;;;;5.95;3.85;;;;;;;;;;6270538;22;20091;-77
2023/05/14 08:02:59;;;;;;;7.22;3.97;;;;;;;;;;6270745;22;20407;-77
2023/05/14 08:05:25;;;;;;;6.28;4.18;;;;;;;;;;6270192;22;19999;-77
2023/05/14 08:07:50;;;;;;;8.10;3.97;;;;;;;;;;6270296;22;20382;-77
2023/05/14 08:10:16;;;;;;;5.88;3.90;;;;;;;;;;6270180;22;20446;-77
2023/05/14 08:12:41;;;;;;;5.93;4.00;;;;;;;;;;6270650;22;20000;-78
2023/05/14 08:15:08;;;;;;;6.38;4.20;;;;;;;;;;6270210;22;20000;-77
2023/05/14 08:17:33;;;;;;;8.02;4.50;;;;;;;;;;6270607;22;20070;-77
2023/05/14 08:19:59;;;;;;;7.47;4.72;;;;;;;;;;6243186;22;20309;-77
2023/05/14 08:22:24;;;;;;;7.70;4.65;;;;;;;;;;6270298;22;20010;-77
2023/05/14 08:24:50;;;;;;;7.80;4.80;;;;;;;;;;6270132;22;20008;-77
2023/05/14 08:27:16;;;;;;;7.90;4.70;;;;;;;;;;6270761;22;20030;-77
2023/05/14 08:29:41;;;;;;;7.47;4.80;;;;;;;;;;6270437;22;20110;-76
2023/05/14 08:32:07;;;;;;;9.32;4.57;;;;;;;;;;6270556;22;20004;-77
2023/05/14 08:34:33;;;;;;;8.88;4.97;;;;;;;;;;6270511;22;20103;-77
2023/05/14 08:36:58;;;;;;;9.07;4.32;;;;;;;;;;6270015;22;20068;-76
2023/05/14 08:39:24;;;;;;;6.57;4.82;;;;;;;;;;6270387;22;20008;-77
2023/05/14 08:41:50;;;;;;;9.38;4.97;;;;;;;;;;6272006;22;20006;-77
2023/05/14 08:44:22;;;;;;;6.25;4.70;;;;;;;;;;6245007;22;20086;-77
2023/05/14 08:46:49;;;;;;;9.82;4.97;;;;;;;;;;6272265;22;20033;-78
2023/05/14 08:49:27;;;;;;;8.43;5.03;;;;;;;;;;6272402;22;20089;-77
2023/05/14 08:51:53;;;;;;;7.18;5.05;;;;;;;;;;6271832;22;20015;-77
2023/05/14 08:54:21;;;;;;;9.32;5.05;;;;;;;;;;6272370;22;19996;-76
2023/05/14 08:56:47;;;;;;;8.02;4.90;;;;;;;;;;6272396;22;20003;-77
2023/05/14 08:59:12;;;;;;;9.98;5.45;;;;;;;;;;6272514;22;20327;-76
2023/05/14 09:01:41;;;;;;;9.75;4.88;;;;;;;;;;6272373;22;20407;-76
2023/05/14 09:04:07;;;;;;;8.23;4.95;;;;;;;;;;6272266;22;20203;-76
2023/05/14 09:06:36;;;;;;;7.90;5.32;;;;;;;;;;6271740;22;20695;-77
2023/05/14 09:09:03;;;;;;;8.68;4.82;;;;;;;;;;6245241;22;20502;-77
2023/05/14 09:11:28;;;;;;;7.50;5.30;;;;;;;;;;6272305;22;20031;-77
2023/05/14 09:13:54;;;;;;;8.57;4.85;;;;;;;;;;6272166;22;20004;-76
2023/05/14 09:16:19;;;;;;;8.30;4.75;;;;;;;;;;6272100;22;20014;-76
2023/05/14 09:18:45;;;;;;;8.23;5.30;;;;;;;;;;6272225;22;20014;-76
2023/05/14 09:21:15;;;;;;;6.50;4.72;;;;;;;;;;6271489;22;20451;-76
2023/05/14 09:23:43;;;;;;;8.25;4.55;;;;;;;;;;6272470;22;19999;-77
2023/05/14 09:26:08;;;;;;;6.07;4.63;;;;;;;;;;6271763;22;20061;-77
2023/05/14 09:28:34;;;;;;;6.75;4.60;;;;;;;;;;6272060;22;20004;-77
2023/05/14 09:31:01;;;;;;;7.93;4.70;;;;;;;;;;6271928;22;20004;-76
2023/05/14 09:33:28;;;;;;;7.25;4.60;;;;;;;;;;6272229;22;20019;-76
2023/05/14 09:36:01;;;;;;;7.07;4.80;;;;;;;;;;6271230;22;20004;-77
2023/05/14 09:38:32;;;;;;;7.28;4.43;;;;;;;;;;6245089;22;20095;-77
2023/05/14 09:40:59;;;;;;;7.90;4.35;;;;;;;;;;6271663;22;20050;-76
2023/05/14 09:43:25;;;;;;;6.53;4.05;;;;;;;;;;6272135;22;20006;-76
2023/05/14 09:45:51;;;;;;;8.82;4.60;;;;;;;;;;6271511;22;19999;-76
2023/05/14 09:48:17;;;;;;;6.40;4.10;;;;;;;;;;6271729;22;20008;-77
2023/05/14 09:50:44;;;;;;;6.28;4.13;;;;;;;;;;6271571;22;20037;-77
2023/05/14 09:53:10;;;;;;;6.80;4.30;;;;;;;;;;6271172;22;20038;-76
2023/05/14 09:55:37;;;;;;;5.55;3.72;;;;;;;;;;6271712;22;20555;-76
2023/05/14 09:58:02;;;;;;;6.07;3.95;;;;;;;;;;6271975;22;20022;-77
2023/05/14 10:00:30;;;;;;;7.03;3.67;;;;;;;;;;6271880;22;20012;-77
2023/05/14 10:02:57;;;;;;;6.72;4.15;;;;;;;;;;6271468;22;20089;-76
2023/05/14 10:05:23;;;;;;;5.93;4.10;;;;;;;;;;6271948;22;20014;-77
2023/05/14 10:07:52;;;;;;;5.97;4.00;;;;;;;;;;6271184;22;20007;-77
2023/05/14 10:10:25;;;;;;;6.28;4.10;;;;;;;;;;6271683;22;20014;-77
2023/05/14 10:12:54;;;;;;;4.93;3.78;;;;;;;;;;6244378;22;20004;-76
2023/05/14 10:15:25;;;;;;;4.47;3.70;;;;;;;;;;6271405;22;20000;-77
2023/05/14 10:17:57;;;;;;;4.50;3.63;;;;;;;;;;6271634;22;20000;-76
2023/05/14 10:20:23;;;;;;;5.95;4.05;;;;;;;;;;6244771;22;20589;-77
2023/05/14 10:22:49;;;;;;;4.43;3.42;;;;;;;;;;6243831;22;20062;-77
2023/05/14 10:25:15;;;;;;;6.20;4.20;;;;;;;;;;6271125;22;20010;-77
2023/05/14 10:27:41;;;;;;;5.75;3.42;;;;;;;;;;6271619;22;20079;-77
2023/05/14 10:30:11;;;;;;;5.55;3.60;;;;;;;;;;6271566;22;20004;-76
2023/05/14 10:32:37;;;;;;;6.18;3.47;;;;;;;;;;6271740;22;20003;-77
2023/05/14 10:35:15;;;;;;;5.70;3.55;;;;;;;;;;6244172;22;20080;-77
2023/05/14 10:37:40;;;;;;;7.13;3.60;;;;;;;;;;6271198;22;19999;-77
2023/05/14 10:40:07;;;;;;;4.68;3.17;;;;;;;;;;6271678;22;20479;-76
2023/05/14 10:42:34;;;;;;;5.38;3.58;;;;;;;;;;6271340;22;20406;-77
2023/05/14 10:45:04;;;;;;;5.90;3.65;;;;;;;;;;6271359;22;19999;-77
2023/05/14 10:47:31;;;;;;;4.72;3.40;;;;;;;;;;6271306;22;20035;-78
2023/05/14 10:50:02;;;;;;;4.80;3.40;;;;;;;;;;6271189;22;20008;-77
2023/05/14 10:52:28;;;;;;;4.93;3.28;;;;;;;;;;6270825;22;20011;-77
2023/05/14 10:54:59;;;;;;;5.63;3.47;;;;;;;;;;6271314;22;20019;-77
2023/05/14 10:57:26;;;;;;;4.78;3.20;;;;;;;;;;6271160;22;20006;-77
2023/05/14 10:59:56;;;;;;;6.00;3.10;;;;;;;;;;6271461;22;20543;-77
2023/05/14 11:02:26;;;;;;;5.35;3.60;;;;;;;;;;6243960;22;20445;-77
2023/05/14 11:05:02;;;;;;;7.05;3.40;;;;;;;;;;6271420;22;20003;-77
2023/05/14 11:07:32;;;;;;;3.92;3.13;;;;;;;;;;6270455;22;20019;-76
2023/05/14 11:10:11;;;;;;;5.07;3.17;;;;;;;;;;6271229;22;20008;-77
2023/05/14 11:12:42;;;;;;;5.68;2.90;;;;;;;;;;6270901;22;19999;-77
2023/05/14 11:15:09;;;;;;;5.20;3.00;;;;;;;;;;6270982;22;20087;-76
2023/05/14 11:17:37;;;;;;;5.85;2.90;;;;;;;;;;6270903;22;20000;-77
2023/05/14 11:20:04;;;;;;;4.97;2.85;;;;;;;;;;6244233;22;20004;-77
2023/05/14 11:22:30;;;;;;;5.72;2.80;;;;;;;;;;6270602;22;20023;-77
2023/05/14 11:24:56;;;;;;;3.95;2.70;;;;;;;;;;6271023;22;20379;-77
2023/05/14 11:27:22;;;;;;;4.78;2.90;;;;;;;;;;6270908;22;19999;-77
2023/05/14 11:29:49;;;;;;;4.10;2.90;;;;;;;;;;6270901;22;20010;-76
2023/05/14 11:32:16;;;;;;;3.83;2.85;;;;;;;;;;6270816;22;20025;-77
2023/05/14 11:34:45;;;;;;;3.60;2.67;;;;;;;;;;6243641;22;20003;-76
2023/05/14 11:37:12;;;;;;;6.90;2.83;;;;;;;;;;6270342;22;20000;-77
2023/05/14 11:39:44;;;;;;;4.25;2.88;;;;;;;;;;6270905;22;20340;-77
2023/05/14 11:42:12;;;;;;;4.63;2.53;;;;;;;;;;6270698;22;20554;-77
2023/05/14 11:44:38;;;;;;;6.88;2.97;;;;;;;;;;6271009;22;20022;-76
2023/05/14 11:47:04;;;;;;;4.47;2.83;;;;;;;;;;6270270;22;20012;-77
2023/05/14 11:49:36;;;;;;;4.05;2.88;;;;;;;;;;6271030;22;20003;-76
2023/05/14 11:52:06;;;;;;;4.63;2.85;;;;;;;;;;6270486;22;20004;-77
2023/05/14 11:54:33;;;;;;;3.33;2.35;;;;;;;;;;6270895;22;20031;-77
2023/05/14 11:57:01;;;;;;;4.57;2.67;;;;;;;;;;6270324;22;20793;-76
2023/05/14 11:59:31;;;;;;;4.38;2.50;;;;;;;;;;6270816;22;20008;-76
2023/05/14 12:01:57;;;;;;;3.95;2.47;;;;;;;;;;6243783;22;20004;-77
2023/05/14 12:04:23;;;;;;;4.93;2.67;;;;;;;;;;6270699;22;20007;-76
2023/05/14 12:06:50;;;;;;;4.57;2.78;;;;;;;;;;6270118;22;20075;-75
2023/05/14 12:09:17;;;;;;;5.15;2.63;;;;;;;;;;6270312;22;20000;-75
2023/05/14 12:11:44;;;;;;;4.57;2.72;;;;;;;;;;6270557;22;20010;-76
2023/05/14 12:14:12;;;;;;;3.72;2.38;;;;;;;;;;6270520;22;20057;-76
2023/05/14 12:16:39;;;;;;;3.60;2.60;;;;;;;;;;6270091;22;20000;-78
2023/05/14 12:19:04;;;;;;;3.95;2.50;;;;;;;;;;6270493;22;20010;-77
2023/05/14 12:21:30;;;;;;;3.85;2.50;;;;;;;;;;6270486;22;19995;-77
2023/05/14 12:24:00;;;;;;;6.03;2.50;;;;;;;;;;6270096;22;20003;-77
2023/05/14 12:26:28;;;;;;;4.30;2.70;;;;;;;;;;6270468;22;20032;-77
2023/05/14 12:29:01;;;;;;;4.55;2.58;;;;;;;;;;6270067;22;20564;-77
2023/05/14 12:31:31;;;;;;;3.70;2.67;;;;;;;;;;6270808;22;20172;-76
2023/05/14 12:33:57;;;;;;;3.47;2.50;;;;;;;;;;6270320;22;19996;-76
2023/05/14 12:36:23;;;;;;;4.95;2.83;;;;;;;;;;6242983;22;20022;-77
2023/05/14 12:38:49;;;;;;;4.53;2.90;;;;;;;;;;6270228;22;20373;-76
2023/05/14 12:41:16;;;;;;;4.43;2.50;;;;;;;;;;6270206;22;20429;-76
2023/05/14 12:43:47;;;;;;;2.90;2.40;;;;;;;;;;6270301;22;20554;-76
2023/05/14 12:46:12;;;;;;;3.83;2.40;;;;;;;;;;6270431;22;20471;-76
2023/05/14 12:48:38;;;;;;;3.30;2.53;;;;;;;;;;6269973;22;20000;-76
2023/05/14 12:51:03;;;;;;;3.35;2.40;;;;;;;;;;6270192;22;20026;-76
2023/05/14 12:53:29;;;;;;;3.95;2.72;;;;;;;;;;6243170;22;20522;-78
2023/05/14 12:55:54;;;;;;;4.95;2.45;;;;;;;;;;6270645;22;20441;-78
2023/05/14 12:58:19;;;;;;;3.95;2.70;;;;;;;;;;6242908;22;20008;-78
2023/05/14 13:00:45;;;;;;;4.20;2.67;;;;;;;;;;6270468;22;20121;-77
2023/05/14 13:03:13;;;;;;;5.78;2.60;;;;;;;;;;6270189;22;20019;-77
2023/05/14 13:05:39;;;;;;;3.58;2.63;;;;;;;;;;6270325;22;20015;-78
2023/05/14 13:08:04;;;;;;;3.53;2.60;;;;;;;;;;6269711;22;20003;-78
2023/05/14 13:10:30;;;;;;;4.47;2.58;;;;;;;;;;6270641;22;20030;-77
2023/05/14 13:12:55;;;;;;;3.25;2.30;;;;;;;;;;6270124;22;20053;-78
2023/05/14 13:15:21;;;;;;;4.13;2.60;;;;;;;;;;6270536;22;20004;-77
2023/05/14 13:17:47;;;;;;;5.00;2.60;;;;;;;;;;6270049;22;19996;-77
2023/05/14 13:20:13;;;;;;;5.13;2.70;;;;;;;;;;6270320;22;20057;-78
2023/05/14 13:22:38;;;;;;;5.93;2.60;;;;;;;;;;6269891;22;19996;-77
2023/05/14 13:25:04;;;;;;;3.92;2.75;;;;;;;;;;6270015;22;20004;-77
2023/05/14 13:27:30;;;;;;;4.15;2.55;;;;;;;;;;6271349;22;20014;-77
2023/05/14 13:29:55;;;;;;;3.90;2.55;;;;;;;;;;6271675;22;20075;-77
2023/05/14 13:32:21;;;;;;;3.30;2.35;;;;;;;;;;6272385;22;20026;-77
2023/05/14 13:34:46;;;;;;;4.40;2.47;;;;;;;;;;6272100;22;20004;-77
2023/05/14 13:37:12;;;;;;;5.85;2.67;;;;;;;;;;6271380;22;20083;-77
2023/05/14 13:39:37;;;;;;;3.35;2.33;;;;;;;;;;6244750;22;20016;-77
2023/05/14 13:42:03;;;;;;;4.55;2.55;;;;;;;;;;6272142;22;20026;-77
2023/05/14 13:44:29;;;;;;;5.28;2.55;;;;;;;;;;6271717;22;20000;-77
2023/05/14 13:46:54;;;;;;;3.38;2.53;;;;;;;;;;6271794;22;20030;-77
2023/05/14 13:49:20;;;;;;;3.78;2.50;;;;;;;;;;6271753;22;20057;-77
2023/05/14 13:51:45;;;;;;;5.45;2.67;;;;;;;;;;6271751;22;20379;-77
2023/05/14 13:54:11;;;;;;;4.45;2.65;;;;;;;;;;6271866;22;20079;-77
2023/05/14 13:56:36;;;;;;;7.65;2.45;;;;;;;;;;6271914;22;19999;-78
2023/05/14 13:59:02;;;;;;;5.05;2.60;;;;;;;;;;6271733;22;20082;-77
2023/05/14 14:01:29;;;;;;;7.28;2.65;;;;;;;;;;6271989;22;19996;-78
2023/05/14 14:03:55;;;;;;;4.63;2.55;;;;;;;;;;6271592;22;20007;-77
2023/05/14 14:06:20;;;;;;;6.35;2.75;;;;;;;;;;6271534;22;19999;-77
2023/05/14 14:08:45;;;;;;;4.38;2.92;;;;;;;;;;6271203;22;20026;-77
2023/05/14 14:11:12;;;;;;;3.45;2.60;;;;;;;;;;6272062;22;20000;-79
2023/05/14 14:13:38;;;;;;;4.65;2.70;;;;;;;;;;6271682;22;20436;-78
2023/05/14 14:16:05;;;;;;;4.10;2.90;;;;;;;;;;6271818;22;19999;-78
2023/05/14 14:18:30;;;;;;;3.85;2.53;;;;;;;;;;6250856;22;20011;-76
2023/05/14 14:20:56;;;;;;;3.90;2.38;;;;;;;;;;6275285;22;20013;-77
2023/05/14 14:23:22;;;;;;;4.90;2.63;;;;;;;;;;6275461;22;20321;-78
2023/05/14 14:25:47;;;;;;;5.47;2.55;;;;;;;;;;6275537;22;20007;-78
2023/05/14 14:28:12;;;;;;;4.63;2.65;;;;;;;;;;6302789;22;20000;-78
2023/05/14 14:30:38;;;;;;;6.45;2.75;;;;;;;;;;6302605;22;20074;-77
2023/05/14 14:33:03;;;;;;;5.53;2.80;;;;;;;;;;6275653;22;20007;-78
2023/05/14 14:35:29;;;;;;;7.57;3.30;;;;;;;;;;6302764;22;20007;-77
2023/05/14 14:37:55;;;;;;;4.07;2.65;;;;;;;;;;6301746;22;20026;-78